createdAt,value
2023-03-30T00:01:19.384Z,8.27
2023-03-30T00:03:49.815Z,8.80
2023-03-30T00:06:22.636Z,6.33
2023-03-30T00:08:57.436Z,4.93
2023-03-30T00:11:27.214Z,8.40
2023-03-30T00:13:56.229Z,11.60
2023-03-30T00:16:24.726Z,6.03
2023-03-30T00:18:53.567Z,7.27
2023-03-30T00:21:23.490Z,9.20
2023-03-30T00:23:52.377Z,4.97
2023-03-30T00:26:21.277Z,4.07
2023-03-30T00:28:50.103Z,8.83
2023-03-30T00:31:18.691Z,7.57
2023-03-30T00:33:47.851Z,6.77
2023-03-30T00:36:17.822Z,6.67
2023-03-30T00:38:48.368Z,4.90
2023-03-30T00:41:17.754Z,6.63
2023-03-30T00:43:57.368Z,5.37
2023-03-30T00:46:26.078Z,3.63
2023-03-30T00:48:58.237Z,5.50
2023-03-30T00:51:28.366Z,4.70
2023-03-30T00:54:04.663Z,4.33
2023-03-30T00:56:33.330Z,6.00
2023-03-30T00:59:03.852Z,4.90
2023-03-30T01:01:38.503Z,6.77
2023-03-30T01:04:09.765Z,6.33
2023-03-30T01:06:40.298Z,8.03
2023-03-30T01:09:10.875Z,7.30
2023-03-30T01:11:39.511Z,3.63
2023-03-30T01:14:10.654Z,4.30
2023-03-30T01:16:45.146Z,2.03
2023-03-30T01:19:38.560Z,3.33
2023-03-30T01:22:54.293Z,5.20
2023-03-30T01:25:45.735Z,2.67
2023-03-30T01:28:31.891Z,3.37
2023-03-30T01:31:30.448Z,7.43
2023-03-30T01:34:29.752Z,3.70
2023-03-30T01:37:37.594Z,8.67
2023-03-30T01:40:14.564Z,9.07
2023-03-30T01:42:54.984Z,3.40
2023-03-30T01:45:30.193Z,4.53
2023-03-30T01:48:09.341Z,3.47
2023-03-30T01:50:43.014Z,6.90
2023-03-30T01:53:16.865Z,3.07
2023-03-30T01:55:50.345Z,9.67
2023-03-30T01:58:24.180Z,3.47
2023-03-30T02:00:53.764Z,8.33
2023-03-30T02:06:00.132Z,3.40
2023-03-30T02:08:33.205Z,3.43
2023-03-30T02:11:04.765Z,1.63
2023-03-30T02:13:35.065Z,4.40
2023-03-30T02:16:08.196Z,2.73
2023-03-30T02:18:38.172Z,2.47
2023-03-30T02:21:06.992Z,2.37
2023-03-30T02:23:41.186Z,2.57
2023-03-30T02:26:11.322Z,4.73
2023-03-30T02:28:40.102Z,7.70
2023-03-30T02:31:13.412Z,7.60
2023-03-30T02:33:53.138Z,5.80
2023-03-30T02:36:35.465Z,6.03
2023-03-30T02:39:14.618Z,6.03
2023-03-30T02:42:13.598Z,1.47
2023-03-30T02:44:47.549Z,8.80
2023-03-30T02:47:24.288Z,2.67
2023-03-30T02:49:58.676Z,2.47
2023-03-30T02:52:40.696Z,3.13
2023-03-30T02:55:19.765Z,3.40
2023-03-30T02:58:35.615Z,2.30
2023-03-30T03:01:15.387Z,5.23
2023-03-30T03:03:58.158Z,6.20
2023-03-30T03:06:28.763Z,3.60
2023-03-30T03:08:58.232Z,3.50
2023-03-30T03:11:29.935Z,5.47
2023-03-30T03:14:00.136Z,2.83
2023-03-30T03:16:30.923Z,1.63
2023-03-30T03:19:16.009Z,3.03
2023-03-30T03:21:45.708Z,2.90
2023-03-30T03:24:17.256Z,2.80
2023-03-30T03:27:04.651Z,5.00
2023-03-30T03:29:43.868Z,3.20
2023-03-30T03:32:12.555Z,3.87
2023-03-30T03:34:46.156Z,3.40
2023-03-30T03:37:15.657Z,2.57
2023-03-30T03:39:46.391Z,3.17
2023-03-30T03:42:16.491Z,1.30
2023-03-30T03:44:56.037Z,3.10
2023-03-30T03:47:24.665Z,1.17
2023-03-30T03:49:53.295Z,1.33
2023-03-30T03:52:21.862Z,5.47
2023-03-30T03:54:50.444Z,5.30
2023-03-30T03:57:19.344Z,4.67
2023-03-30T03:59:49.015Z,1.50
2023-03-30T04:02:19.802Z,2.43
2023-03-30T04:04:50.313Z,1.87
2023-03-30T04:07:18.873Z,4.77
2023-03-30T04:09:47.737Z,8.13
2023-03-30T04:12:42.497Z,3.30
2023-03-30T04:15:43.434Z,8.67
2023-03-30T04:18:31.387Z,2.77
2023-03-30T04:21:13.000Z,4.70
2023-03-30T04:24:04.866Z,5.30
2023-03-30T04:26:52.032Z,2.43
2023-03-30T04:29:40.777Z,1.47
2023-03-30T04:32:44.901Z,3.43
2023-03-30T04:35:33.343Z,7.83
2023-03-30T04:38:12.298Z,3.10
2023-03-30T04:40:55.123Z,3.73
2023-03-30T04:43:42.165Z,1.77
2023-03-30T04:46:29.304Z,2.93
2023-03-30T04:49:15.680Z,2.63
2023-03-30T04:52:11.864Z,4.77
2023-03-30T04:54:57.987Z,2.83
2023-03-30T04:57:44.955Z,2.20
2023-03-30T05:00:33.858Z,3.57
2023-03-30T05:03:23.252Z,4.90
2023-03-30T05:06:15.176Z,4.23
2023-03-30T05:08:45.026Z,5.97
2023-03-30T05:11:32.231Z,1.57
2023-03-30T05:14:21.021Z,3.63
2023-03-30T05:17:11.659Z,4.73
2023-03-30T05:19:55.164Z,8.00
2023-03-30T05:22:32.373Z,5.10
2023-03-30T05:25:15.751Z,10.53
2023-03-30T05:28:03.431Z,3.40
2023-03-30T05:34:00.234Z,3.20
2023-03-30T05:36:48.995Z,4.43
2023-03-30T05:39:29.806Z,3.07
2023-03-30T05:42:17.997Z,7.90
2023-03-30T05:44:56.372Z,4.47
2023-03-30T05:47:39.844Z,6.30
2023-03-30T05:50:15.654Z,10.07
2023-03-30T05:53:04.690Z,7.70
2023-03-30T05:55:39.201Z,8.50
2023-03-30T05:58:09.741Z,10.60
2023-03-30T06:01:14.386Z,10.60
2023-03-30T06:03:45.751Z,8.57
2023-03-30T06:06:14.790Z,6.60
2023-03-30T06:08:46.767Z,10.33
2023-03-30T06:11:19.492Z,5.43
2023-03-30T06:14:01.008Z,13.10
2023-03-30T06:16:31.923Z,9.07
2023-03-30T06:19:01.840Z,9.03
2023-03-30T06:21:30.976Z,6.60
2023-03-30T06:24:20.743Z,10.37
2023-03-30T06:26:50.804Z,7.23
2023-03-30T06:29:20.828Z,8.10
2023-03-30T06:31:51.251Z,7.10
2023-03-30T06:34:46.452Z,7.50
2023-03-30T06:37:16.131Z,10.23
2023-03-30T06:39:46.185Z,10.03
2023-03-30T06:42:14.864Z,6.60
2023-03-30T06:45:04.422Z,14.43
2023-03-30T06:47:33.744Z,13.20
2023-03-30T06:50:02.342Z,14.10
2023-03-30T06:52:48.493Z,7.80
2023-03-30T06:55:17.391Z,13.63
2023-03-30T06:57:48.174Z,5.70
2023-03-30T07:00:19.132Z,11.33
2023-03-30T07:03:06.791Z,7.40
2023-03-30T07:05:58.666Z,5.43
2023-03-30T07:08:40.228Z,13.53
2023-03-30T07:11:11.437Z,10.27
2023-03-30T07:13:42.067Z,14.07
2023-03-30T07:16:12.220Z,5.80
2023-03-30T07:18:40.904Z,9.43
2023-03-30T07:21:09.531Z,11.17
2023-03-30T07:23:41.948Z,7.80
2023-03-30T07:26:13.292Z,15.13
2023-03-30T07:28:53.408Z,11.80
2023-03-30T07:31:25.477Z,11.53
2023-03-30T07:33:54.209Z,11.67
2023-03-30T07:36:26.482Z,10.70
2023-03-30T07:38:55.310Z,12.93
2023-03-30T07:41:24.190Z,10.90
2023-03-30T07:43:57.436Z,11.40
2023-03-30T07:46:27.717Z,13.43
2023-03-30T07:48:57.594Z,13.30
2023-03-30T07:51:28.394Z,17.77
2023-03-30T07:54:13.229Z,8.77
2023-03-30T07:56:54.832Z,10.33
2023-03-30T07:59:25.175Z,9.27
2023-03-30T08:01:59.606Z,9.43
2023-03-30T08:04:52.918Z,16.77
2023-03-30T08:07:40.106Z,8.73
2023-03-30T08:10:14.905Z,6.50
2023-03-30T08:12:43.524Z,11.97
2023-03-30T08:15:12.678Z,9.17
2023-03-30T08:17:42.659Z,15.43
2023-03-30T08:20:11.769Z,6.27
2023-03-30T08:22:40.431Z,9.30
2023-03-30T08:25:09.601Z,11.37
2023-03-30T08:27:38.285Z,15.60
2023-03-30T08:30:08.074Z,26.23
2023-03-30T08:32:36.662Z,15.63
2023-03-30T08:35:07.914Z,16.90
2023-03-30T08:37:36.486Z,15.07
2023-03-30T08:40:08.387Z,10.53
2023-03-30T08:43:18.604Z,9.97
2023-03-30T08:45:47.563Z,15.00
2023-03-30T08:48:19.778Z,15.40
2023-03-30T08:50:56.134Z,11.93
2023-03-30T08:53:24.700Z,10.40
2023-03-30T08:55:58.236Z,17.30
2023-03-30T08:58:35.477Z,9.57
2023-03-30T09:01:14.269Z,16.73
2023-03-30T09:03:50.596Z,10.63
2023-03-30T09:06:27.379Z,9.87
2023-03-30T09:08:55.935Z,7.20
2023-03-30T09:11:32.807Z,9.20
2023-03-30T09:14:04.816Z,16.83
2023-03-30T09:16:39.528Z,10.90
2023-03-30T09:19:13.124Z,15.03
2023-03-30T09:21:44.152Z,19.97
2023-03-30T09:24:17.872Z,15.20
2023-03-30T09:26:52.568Z,14.90
2023-03-30T09:29:27.242Z,15.03
2023-03-30T09:32:05.817Z,10.77
2023-03-30T09:34:41.773Z,11.13
2023-03-30T09:37:16.217Z,15.83
2023-03-30T09:39:45.928Z,10.60
2023-03-30T09:42:32.739Z,21.33
2023-03-30T09:45:07.213Z,11.80
2023-03-30T09:47:44.368Z,17.60
2023-03-30T09:50:18.497Z,13.80
2023-03-30T09:52:57.822Z,9.27
2023-03-30T09:55:30.003Z,13.70
2023-03-30T09:58:13.281Z,19.07
2023-03-30T10:00:42.164Z,15.10
2023-03-30T10:03:22.059Z,21.93
2023-03-30T10:06:03.812Z,18.23
2023-03-30T10:08:32.780Z,15.37
2023-03-30T10:11:06.005Z,19.70
2023-03-30T10:13:37.590Z,16.60
2023-03-30T10:16:09.199Z,15.70
2023-03-30T10:18:45.481Z,19.83
2023-03-30T10:21:22.754Z,14.33
2023-03-30T10:24:03.567Z,17.00
2023-03-30T10:26:34.714Z,12.73
2023-03-30T10:29:05.476Z,12.07
2023-03-30T10:31:37.281Z,25.57
2023-03-30T10:34:15.317Z,14.07
2023-03-30T10:36:43.931Z,13.43
2023-03-30T10:39:17.909Z,18.27
2023-03-30T10:41:48.260Z,13.47
2023-03-30T10:44:23.244Z,17.63
2023-03-30T10:46:54.938Z,20.57
2023-03-30T10:49:39.509Z,13.03
2023-03-30T10:52:16.974Z,18.53
2023-03-30T10:54:52.798Z,21.17
2023-03-30T10:57:25.353Z,19.93
2023-03-30T11:00:20.562Z,13.23
2023-03-30T11:03:01.507Z,13.10
2023-03-30T11:05:35.649Z,23.23
2023-03-30T11:08:06.166Z,12.43
2023-03-30T11:10:38.385Z,22.37
2023-03-30T11:13:11.591Z,9.47
2023-03-30T11:15:45.141Z,13.47
2023-03-30T11:18:19.250Z,10.47
2023-03-30T11:20:54.867Z,16.43
2023-03-30T11:23:31.131Z,13.07
2023-03-30T11:26:04.491Z,11.63
2023-03-30T11:28:48.601Z,18.90
2023-03-30T11:31:34.434Z,12.50
2023-03-30T11:34:10.847Z,16.53
2023-03-30T11:36:49.704Z,14.33
2023-03-30T11:39:32.205Z,13.10
2023-03-30T11:42:08.143Z,16.43
2023-03-30T11:44:37.547Z,14.03
2023-03-30T11:47:20.229Z,12.00
2023-03-30T11:50:04.326Z,13.80
2023-03-30T11:52:38.210Z,10.03
2023-03-30T11:55:27.389Z,17.03
2023-03-30T11:58:06.818Z,15.90
2023-03-30T12:00:48.627Z,11.47
2023-03-30T12:03:27.826Z,11.57
2023-03-30T12:06:06.636Z,15.30
2023-03-30T12:08:52.161Z,16.83
2023-03-30T12:11:28.916Z,16.93
2023-03-30T12:13:58.368Z,15.73
2023-03-30T12:16:32.861Z,18.10
2023-03-30T12:19:11.056Z,14.27
2023-03-30T12:21:48.906Z,18.70
2023-03-30T12:24:23.497Z,10.87
2023-03-30T12:27:04.248Z,11.90
2023-03-30T12:30:02.628Z,15.17
2023-03-30T12:32:32.328Z,13.83
2023-03-30T12:35:00.983Z,12.53
2023-03-30T12:37:34.756Z,13.40
2023-03-30T12:40:09.619Z,24.97
2023-03-30T12:42:46.939Z,17.57
2023-03-30T12:45:25.517Z,16.43
2023-03-30T12:48:30.526Z,24.70
2023-03-30T12:51:08.600Z,14.10
2023-03-30T12:54:01.237Z,18.13
2023-03-30T12:56:37.992Z,12.47
2023-03-30T12:59:29.955Z,8.73
2023-03-30T13:02:08.806Z,9.37
2023-03-30T13:04:39.967Z,13.60
2023-03-30T13:07:15.195Z,12.93
2023-03-30T13:09:56.619Z,16.80
2023-03-30T13:12:39.830Z,16.40
2023-03-30T13:15:33.786Z,16.47
2023-03-30T13:18:05.239Z,15.33
2023-03-30T13:20:35.838Z,20.87
2023-03-30T13:23:28.179Z,18.83
2023-03-30T13:26:33.985Z,18.17
2023-03-30T13:29:11.333Z,14.30
2023-03-30T13:32:04.319Z,17.37
2023-03-30T13:35:08.507Z,20.23
2023-03-30T13:38:11.273Z,20.13
2023-03-30T13:40:57.693Z,14.80
2023-03-30T13:43:41.063Z,28.70
2023-03-30T13:46:19.109Z,17.77
2023-03-30T13:49:03.069Z,13.63
2023-03-30T13:51:32.823Z,16.20
2023-03-30T13:54:05.077Z,19.53
2023-03-30T13:56:36.917Z,13.20
2023-03-30T13:59:08.363Z,15.70
2023-03-30T14:01:40.454Z,11.67
2023-03-30T14:04:13.746Z,16.47
2023-03-30T14:06:45.899Z,15.00
2023-03-30T14:09:19.527Z,10.43
2023-03-30T14:11:51.509Z,9.00
2023-03-30T14:14:23.848Z,14.17
2023-03-30T14:16:53.860Z,11.47
2023-03-30T14:19:26.088Z,17.07
2023-03-30T14:21:58.242Z,17.23
2023-03-30T14:24:33.124Z,9.20
2023-03-30T14:27:04.076Z,9.47
2023-03-30T14:29:33.291Z,21.47
2023-03-30T14:32:09.261Z,18.17
2023-03-30T14:34:38.541Z,13.83
2023-03-30T14:37:09.205Z,11.20
2023-03-30T14:39:41.554Z,9.07
2023-03-30T14:42:17.382Z,10.73
2023-03-30T14:44:48.276Z,12.97
2023-03-30T14:47:22.211Z,16.53
2023-03-30T14:49:54.514Z,11.97
2023-03-30T14:52:26.658Z,12.00
2023-03-30T14:55:05.339Z,12.57
2023-03-30T14:57:38.991Z,15.53
2023-03-30T15:00:21.038Z,16.50
2023-03-30T15:02:54.194Z,10.40
2023-03-30T15:05:25.686Z,11.20
2023-03-30T15:07:54.427Z,14.73
2023-03-30T15:10:26.644Z,8.53
2023-03-30T15:12:58.389Z,9.70
2023-03-30T15:15:30.675Z,10.83
2023-03-30T15:18:01.602Z,9.70
2023-03-30T15:20:32.825Z,14.13
2023-03-30T15:23:02.047Z,10.17
2023-03-30T15:25:33.369Z,9.40
2023-03-30T15:28:05.048Z,8.47
2023-03-30T15:30:37.082Z,17.43
2023-03-30T15:33:08.542Z,7.70
2023-03-30T15:35:38.678Z,8.63
2023-03-30T15:38:17.151Z,12.93
2023-03-30T15:40:47.005Z,12.30
2023-03-30T15:43:21.109Z,15.60
2023-03-30T15:45:52.927Z,10.83
2023-03-30T15:48:25.780Z,11.53
2023-03-30T15:51:03.597Z,9.80
2023-03-30T15:53:41.144Z,11.43
2023-03-30T15:56:14.348Z,11.13
2023-03-30T15:58:44.070Z,12.00
2023-03-30T16:01:15.774Z,22.63
2023-03-30T16:03:54.795Z,16.87
2023-03-30T16:06:23.924Z,8.40
2023-03-30T16:08:52.510Z,11.40
2023-03-30T16:11:22.744Z,12.60
2023-03-30T16:13:54.012Z,5.40
2023-03-30T16:16:22.782Z,7.30
2023-03-30T16:18:52.785Z,7.87
2023-03-30T16:21:24.438Z,13.03
2023-03-30T16:23:53.103Z,7.00
2023-03-30T16:26:21.984Z,7.47
2023-03-30T16:28:52.629Z,11.77
2023-03-30T16:31:23.759Z,9.93
2023-03-30T16:33:54.125Z,7.27
2023-03-30T16:36:24.322Z,11.97
2023-03-30T16:38:52.943Z,10.33
2023-03-30T16:41:23.011Z,12.40
2023-03-30T16:43:51.678Z,11.10
2023-03-30T16:46:22.804Z,12.13
2023-03-30T16:48:52.794Z,9.37
2023-03-30T16:51:21.468Z,16.03
2023-03-30T16:53:50.033Z,10.93
2023-03-30T16:56:20.348Z,9.03
2023-03-30T16:58:49.349Z,7.87
2023-03-30T17:01:18.858Z,6.67
2023-03-30T17:03:47.864Z,15.03
2023-03-30T17:06:17.856Z,16.57
2023-03-30T17:08:46.460Z,13.87
2023-03-30T17:11:15.581Z,13.63
2023-03-30T17:13:46.471Z,14.50
2023-03-30T17:16:16.124Z,9.47
2023-03-30T17:18:44.878Z,11.83
2023-03-30T17:21:16.421Z,9.63
2023-03-30T17:23:47.965Z,10.60
2023-03-30T17:26:17.617Z,16.67
2023-03-30T17:28:46.509Z,18.63
2023-03-30T17:31:17.466Z,15.27
2023-03-30T17:33:46.329Z,12.80
2023-03-30T17:36:19.239Z,16.40
2023-03-30T17:38:50.515Z,6.73
2023-03-30T17:41:20.413Z,10.43
2023-03-30T17:43:49.621Z,9.90
2023-03-30T17:46:20.794Z,8.67
2023-03-30T17:48:51.071Z,12.67
2023-03-30T17:51:20.602Z,11.60
2023-03-30T17:53:50.604Z,13.20
2023-03-30T17:56:19.221Z,11.27
2023-03-30T17:58:49.479Z,11.68
2023-03-30T18:01:18.169Z,12.13
2023-03-30T18:03:46.955Z,20.33
2023-03-30T18:06:15.696Z,10.80
2023-03-30T18:08:44.322Z,11.80
2023-03-30T18:11:14.250Z,11.13
2023-03-30T18:13:42.839Z,13.10
2023-03-30T18:16:13.850Z,19.77
2023-03-30T18:18:42.457Z,10.77
2023-03-30T18:21:11.963Z,9.60
2023-03-30T18:23:40.486Z,15.60
2023-03-30T18:26:12.786Z,9.70
2023-03-30T18:28:44.115Z,18.27
2023-03-30T18:31:13.292Z,12.30
2023-03-30T18:33:41.972Z,18.70
2023-03-30T18:36:12.788Z,9.63
2023-03-30T18:38:42.112Z,14.37
2023-03-30T18:41:12.502Z,14.90
2023-03-30T18:43:42.502Z,14.20
2023-03-30T18:46:12.533Z,12.50
2023-03-30T18:48:41.275Z,21.13
2023-03-30T18:51:11.948Z,10.07
2023-03-30T18:53:40.690Z,10.00
2023-03-30T18:56:13.556Z,18.77
2023-03-30T18:58:43.880Z,16.33
2023-03-30T19:01:15.702Z,16.30
2023-03-30T19:03:44.843Z,15.03
2023-03-30T19:06:15.982Z,16.57
2023-03-30T19:08:44.534Z,13.87
2023-03-30T19:11:17.499Z,18.03
2023-03-30T19:13:48.186Z,6.67
2023-03-30T19:16:18.587Z,14.50
2023-03-30T19:18:49.383Z,8.43
2023-03-30T19:21:19.422Z,21.03
2023-03-30T19:23:48.112Z,17.13
2023-03-30T19:26:16.853Z,17.60
2023-03-30T19:28:46.852Z,14.33
2023-03-30T19:31:16.417Z,9.93
2023-03-30T19:33:45.217Z,11.60
2023-03-30T19:36:13.770Z,13.83
2023-03-30T19:38:43.958Z,12.83
2023-03-30T19:41:12.761Z,15.53
2023-03-30T19:43:41.324Z,15.67
2023-03-30T19:46:11.319Z,15.53
2023-03-30T19:48:39.921Z,8.93
2023-03-30T19:51:08.654Z,16.33
2023-03-30T19:53:37.557Z,12.17
2023-03-30T19:56:10.286Z,10.13
2023-03-30T19:58:38.938Z,15.77
2023-03-30T20:01:08.663Z,10.70
2023-03-30T20:03:38.816Z,15.07
2023-03-30T20:06:11.013Z,12.37
2023-03-30T20:08:40.209Z,14.90
2023-03-30T20:11:09.610Z,17.87
2023-03-30T20:13:38.648Z,14.57
2023-03-30T20:16:07.546Z,10.33
2023-03-30T20:18:36.253Z,12.67
2023-03-30T20:21:06.698Z,13.87
2023-03-30T20:23:35.532Z,15.90
2023-03-30T20:26:04.769Z,12.83
2023-03-30T20:28:33.662Z,18.30
2023-03-30T20:31:02.822Z,17.50
2023-03-30T20:33:33.768Z,10.17
2023-03-30T20:36:02.407Z,18.13
2023-03-30T20:38:32.486Z,15.73
2023-03-30T20:41:04.059Z,12.90
2023-03-30T20:43:40.604Z,11.00
2023-03-30T20:46:15.439Z,8.17
2023-03-30T20:48:44.996Z,10.57
2023-03-30T20:51:15.512Z,13.60
2023-03-30T20:53:45.513Z,14.03
2023-03-30T20:56:14.300Z,11.93
2023-03-30T20:58:42.894Z,16.17
2023-03-30T21:01:14.769Z,20.20
2023-03-30T21:03:45.230Z,14.73
2023-03-30T21:06:18.115Z,14.13
2023-03-30T21:08:48.054Z,11.63
2023-03-30T21:11:16.601Z,11.53
2023-03-30T21:13:45.402Z,15.03
2023-03-30T21:16:14.324Z,9.90
2023-03-30T21:18:43.077Z,8.03
2023-03-30T21:21:11.723Z,14.03
2023-03-30T21:23:41.395Z,11.77
2023-03-30T21:26:11.801Z,12.50
2023-03-30T21:28:41.369Z,12.70
2023-03-30T21:31:14.140Z,14.80
2023-03-30T21:33:42.827Z,11.18
2023-03-30T21:36:12.047Z,11.03
2023-03-30T21:38:40.902Z,11.10
2023-03-30T21:41:12.752Z,13.53
2023-03-30T21:43:44.070Z,20.83
2023-03-30T21:46:14.337Z,15.43
2023-03-30T21:48:45.399Z,22.40
2023-03-30T21:51:15.884Z,6.60
2023-03-30T21:53:48.101Z,15.70
2023-03-30T21:56:19.572Z,14.10
2023-03-30T21:58:48.224Z,17.17
2023-03-30T22:01:17.301Z,9.80
2023-03-30T22:03:46.729Z,14.40
2023-03-30T22:06:17.221Z,19.33
2023-03-30T22:08:46.364Z,10.27
2023-03-30T22:11:18.634Z,10.63
2023-03-30T22:13:48.861Z,10.70
2023-03-30T22:16:19.633Z,12.43
2023-03-30T22:18:48.181Z,8.03
2023-03-30T22:21:24.067Z,8.63
2023-03-30T22:23:54.553Z,9.00
2023-03-30T22:26:24.679Z,11.30
2023-03-30T22:28:53.233Z,15.93
2023-03-30T22:31:22.075Z,13.90
2023-03-30T22:33:50.766Z,9.83
2023-03-30T22:36:20.976Z,10.00
2023-03-30T22:38:50.790Z,10.17
2023-03-30T22:41:24.766Z,12.53
2023-03-30T22:43:56.246Z,8.03
2023-03-30T22:46:26.906Z,8.37
2023-03-30T22:48:56.419Z,11.53
2023-03-30T22:51:26.220Z,14.13
2023-03-30T22:53:57.846Z,10.40
2023-03-30T22:56:27.319Z,7.80
2023-03-30T22:58:57.997Z,7.67
2023-03-30T23:01:29.226Z,13.90
2023-03-30T23:03:59.583Z,12.23
2023-03-30T23:06:28.561Z,14.60
2023-03-30T23:08:57.209Z,17.17
2023-03-30T23:11:26.357Z,11.37
2023-03-30T23:13:55.326Z,12.23
2023-03-30T23:16:25.350Z,14.57
2023-03-30T23:18:53.901Z,15.57
2023-03-30T23:21:22.891Z,9.07
2023-03-30T23:23:51.884Z,11.97
2023-03-30T23:26:21.401Z,9.87
2023-03-30T23:28:49.966Z,13.97
2023-03-30T23:31:18.944Z,11.23
2023-03-30T23:33:49.273Z,11.70
2023-03-30T23:36:19.088Z,12.60
2023-03-30T23:38:48.671Z,14.93
2023-03-30T23:41:20.063Z,7.10
2023-03-30T23:43:48.981Z,8.90
2023-03-30T23:46:17.780Z,7.43
2023-03-30T23:48:46.608Z,8.93
2023-03-30T23:51:16.506Z,10.37
2023-03-30T23:53:45.060Z,12.67
2023-03-30T23:56:17.157Z,17.07
2023-03-30T23:58:46.199Z,13.23
